createdAt,value
2022-12-09T00:01:11.656Z,15.07
2022-12-09T00:04:17.676Z,15.82
2022-12-09T00:07:25.765Z,16.10
2022-12-09T00:10:31.600Z,15.15
2022-12-09T00:13:37.107Z,15.52
2022-12-09T00:16:43.032Z,15.07
2022-12-09T00:19:49.466Z,15.00
2022-12-09T00:23:00.403Z,15.57
2022-12-09T00:26:06.062Z,16.05
2022-12-09T00:29:11.757Z,14.30
2022-12-09T00:32:17.003Z,15.48
2022-12-09T00:35:23.462Z,15.00
2022-12-09T00:38:31.305Z,15.23
2022-12-09T00:41:37.077Z,15.02
2022-12-09T00:44:42.489Z,16.20
2022-12-09T00:47:48.008Z,15.20
2022-12-09T00:50:53.493Z,14.60
2022-12-09T00:54:01.636Z,14.98
2022-12-09T00:57:07.776Z,14.30
2022-12-09T01:00:14.228Z,14.23
2022-12-09T01:03:20.977Z,14.70
2022-12-09T01:06:28.383Z,15.27
2022-12-09T01:09:37.173Z,14.65
2022-12-09T01:12:43.122Z,13.82
2022-12-09T01:15:48.616Z,14.38
2022-12-09T01:18:54.718Z,13.32
2022-12-09T01:22:01.388Z,14.35
2022-12-09T01:25:10.048Z,14.57
2022-12-09T01:28:15.563Z,14.40
2022-12-09T01:31:21.549Z,13.93
2022-12-09T01:34:26.856Z,13.82
2022-12-09T01:37:32.522Z,13.35
2022-12-09T01:40:41.258Z,11.95
2022-12-09T01:43:47.228Z,12.57
2022-12-09T01:46:57.500Z,12.40
2022-12-09T01:50:03.481Z,12.35
2022-12-09T01:53:09.337Z,11.40
2022-12-09T01:56:20.505Z,13.07
2022-12-09T01:59:26.585Z,13.25
2022-12-09T02:02:33.706Z,11.82
2022-12-09T02:05:39.570Z,13.05
2022-12-09T02:08:45.684Z,11.95
2022-12-09T02:12:02.224Z,12.00
2022-12-09T02:15:10.145Z,12.32
2022-12-09T02:18:18.770Z,12.57
2022-12-09T02:21:28.059Z,12.68
2022-12-09T02:24:38.233Z,11.55
2022-12-09T02:27:49.833Z,11.35
2022-12-09T02:31:01.915Z,11.60
2022-12-09T02:34:14.853Z,11.55
2022-12-09T02:37:26.142Z,11.65
2022-12-09T02:40:35.853Z,11.40
2022-12-09T02:43:49.459Z,10.77
2022-12-09T02:46:58.994Z,10.45
2022-12-09T02:50:09.364Z,10.63
2022-12-09T02:53:16.776Z,10.27
2022-12-09T02:56:22.795Z,9.80
2022-12-09T02:59:28.859Z,10.35
2022-12-09T03:02:36.729Z,10.65
2022-12-09T03:05:49.763Z,10.38
2022-12-09T03:08:56.749Z,9.95
2022-12-09T03:12:05.116Z,11.77
2022-12-09T03:15:11.344Z,11.75
2022-12-09T03:18:19.274Z,11.70
2022-12-09T03:21:29.050Z,12.68
2022-12-09T03:24:37.626Z,10.98
2022-12-09T03:27:45.028Z,11.73
2022-12-09T03:30:51.038Z,11.43
2022-12-09T03:33:58.529Z,11.82
2022-12-09T03:37:07.640Z,13.00
2022-12-09T03:40:15.928Z,12.73
2022-12-09T03:43:25.080Z,13.57
2022-12-09T03:46:31.575Z,13.63
2022-12-09T03:49:38.343Z,13.25
2022-12-09T03:52:48.933Z,13.63
2022-12-09T03:55:57.125Z,13.40
2022-12-09T03:59:04.370Z,13.02
2022-12-09T04:02:10.506Z,14.23
2022-12-09T04:05:16.987Z,13.70
2022-12-09T04:08:25.362Z,12.15
2022-12-09T04:11:30.961Z,11.85
2022-12-09T04:14:36.642Z,12.10
2022-12-09T04:17:42.416Z,12.68
2022-12-09T04:20:47.706Z,11.27
2022-12-09T04:23:55.670Z,10.48
2022-12-09T04:27:01.119Z,12.95
2022-12-09T04:30:07.929Z,11.32
2022-12-09T04:33:13.970Z,11.32
2022-12-09T04:36:21.170Z,11.50
2022-12-09T04:39:29.357Z,11.90
2022-12-09T04:45:39.947Z,11.57
2022-12-09T04:48:45.810Z,13.43
2022-12-09T04:51:51.765Z,13.57
2022-12-09T04:54:59.781Z,13.10
2022-12-09T04:58:05.290Z,17.60
2022-12-09T05:01:11.367Z,17.90
2022-12-09T05:04:17.576Z,17.92
2022-12-09T05:07:24.021Z,18.30
2022-12-09T05:10:32.319Z,18.95
2022-12-09T05:13:37.602Z,19.38
2022-12-09T05:16:43.433Z,18.40
2022-12-09T05:19:49.167Z,19.73
2022-12-09T05:22:55.013Z,21.15
2022-12-09T05:26:05.197Z,20.75
2022-12-09T05:29:11.051Z,20.27
2022-12-09T05:32:17.391Z,21.42
2022-12-09T05:35:23.204Z,19.60
2022-12-09T05:38:28.890Z,19.00
2022-12-09T05:41:36.809Z,20.00
2022-12-09T05:44:42.375Z,20.55
2022-12-09T05:47:48.412Z,19.08
2022-12-09T05:50:59.986Z,20.80
2022-12-09T05:54:07.318Z,19.88
2022-12-09T05:57:15.245Z,18.83
2022-12-09T06:00:20.980Z,20.17
2022-12-09T06:03:27.204Z,18.98
2022-12-09T06:06:33.562Z,18.75
2022-12-09T06:09:39.551Z,17.63
2022-12-09T06:12:47.833Z,18.85
2022-12-09T06:15:53.921Z,17.67
2022-12-09T06:18:59.984Z,20.23
2022-12-09T06:22:05.469Z,19.73
2022-12-09T06:25:11.670Z,20.65
2022-12-09T06:28:20.974Z,19.70
2022-12-09T06:31:26.853Z,19.88
2022-12-09T06:34:32.803Z,18.75
2022-12-09T06:37:38.587Z,20.45
2022-12-09T06:40:44.335Z,19.15
2022-12-09T06:43:52.600Z,20.20
2022-12-09T06:46:58.444Z,19.60
2022-12-09T06:50:06.955Z,20.02
2022-12-09T06:53:13.158Z,19.30
2022-12-09T06:56:19.048Z,18.65
2022-12-09T06:59:27.590Z,18.27
2022-12-09T07:02:35.755Z,19.27
2022-12-09T07:05:42.630Z,18.77
2022-12-09T07:08:48.591Z,19.17
2022-12-09T07:11:54.201Z,20.45
2022-12-09T07:15:02.632Z,19.55
2022-12-09T07:18:11.143Z,17.77
2022-12-09T07:21:18.044Z,18.48
2022-12-09T07:24:23.762Z,19.05
2022-12-09T07:27:29.242Z,20.08
2022-12-09T07:30:37.348Z,20.88
2022-12-09T07:33:43.749Z,19.55
2022-12-09T07:36:49.710Z,20.77
2022-12-09T07:39:55.850Z,21.75
2022-12-09T07:43:01.383Z,22.60
2022-12-09T07:46:11.398Z,25.45
2022-12-09T07:49:17.417Z,22.50
2022-12-09T07:52:22.881Z,23.05
2022-12-09T07:55:28.898Z,21.20
2022-12-09T07:58:34.484Z,21.05
2022-12-09T08:01:42.952Z,20.30
2022-12-09T08:04:48.794Z,21.73
2022-12-09T08:07:54.726Z,22.95
2022-12-09T08:11:00.118Z,22.67
2022-12-09T08:14:11.370Z,22.75
2022-12-09T08:17:22.213Z,22.27
2022-12-09T08:20:29.666Z,22.55
2022-12-09T08:23:35.597Z,25.30
2022-12-09T08:26:41.928Z,24.95
2022-12-09T08:29:47.462Z,25.45
2022-12-09T08:32:55.609Z,25.38
2022-12-09T08:39:07.776Z,22.73
2022-12-09T08:42:13.588Z,22.20
2022-12-09T08:45:19.413Z,20.98
2022-12-09T08:48:28.118Z,24.45
2022-12-09T08:51:34.078Z,22.95
2022-12-09T08:54:40.081Z,21.70
2022-12-09T08:57:45.316Z,22.15
2022-12-09T09:00:50.967Z,23.80
2022-12-09T09:03:59.602Z,22.83
2022-12-09T09:07:05.634Z,23.10
2022-12-09T09:10:12.287Z,20.63
2022-12-09T09:13:18.913Z,22.98
2022-12-09T09:16:24.969Z,22.30
2022-12-09T09:19:33.517Z,20.80
2022-12-09T09:22:39.028Z,20.58
2022-12-09T09:25:45.564Z,22.30
2022-12-09T09:28:50.992Z,20.38
2022-12-09T09:31:57.707Z,20.27
2022-12-09T09:35:06.532Z,19.77
2022-12-09T09:38:12.682Z,18.83
2022-12-09T09:41:21.909Z,19.77
2022-12-09T09:44:29.592Z,20.02
2022-12-09T09:47:39.573Z,19.88
2022-12-09T09:50:52.457Z,19.63
2022-12-09T09:54:02.433Z,20.83
2022-12-09T09:57:16.633Z,19.98
2022-12-09T10:00:26.645Z,19.20
2022-12-09T10:03:38.381Z,18.58
2022-12-09T10:06:50.920Z,18.00
2022-12-09T10:10:00.736Z,18.60
2022-12-09T10:13:18.194Z,18.55
2022-12-09T10:16:27.133Z,17.23
2022-12-09T10:19:36.084Z,17.48
2022-12-09T10:22:45.999Z,16.70
2022-12-09T10:25:54.732Z,16.73
2022-12-09T10:29:03.157Z,18.10
2022-12-09T10:32:09.133Z,16.75
2022-12-09T10:35:19.706Z,18.00
2022-12-09T10:38:29.581Z,18.45
2022-12-09T10:41:57.126Z,16.65
2022-12-09T10:45:08.594Z,18.58
2022-12-09T10:48:23.092Z,18.95
2022-12-09T10:51:31.160Z,18.13
2022-12-09T10:54:40.156Z,18.20
2022-12-09T10:57:45.941Z,17.70
2022-12-09T11:01:06.311Z,19.75
2022-12-09T11:04:16.599Z,17.67
2022-12-09T11:07:23.921Z,18.73
2022-12-09T11:10:33.447Z,19.40
2022-12-09T11:13:42.673Z,18.92
2022-12-09T11:16:48.419Z,18.92
2022-12-09T11:19:55.375Z,17.85
2022-12-09T11:23:05.666Z,19.23
2022-12-09T11:26:27.180Z,18.17
2022-12-09T11:29:33.073Z,18.75
2022-12-09T11:32:40.131Z,18.73
2022-12-09T11:35:55.023Z,17.60
2022-12-09T11:39:10.927Z,17.02
2022-12-09T11:42:22.242Z,16.15
2022-12-09T11:45:30.563Z,16.33
2022-12-09T11:51:49.873Z,17.02
2022-12-09T11:54:58.883Z,16.70
2022-12-09T11:58:08.333Z,17.08
2022-12-09T12:01:15.765Z,18.67
2022-12-09T12:04:23.768Z,16.42
2022-12-09T12:07:33.027Z,17.70
2022-12-09T12:10:40.834Z,16.70
2022-12-09T12:13:49.901Z,16.92
2022-12-09T12:16:58.786Z,15.63
2022-12-09T12:20:04.077Z,15.75
2022-12-09T12:23:17.714Z,16.95
2022-12-09T12:26:24.520Z,15.93
2022-12-09T12:29:38.721Z,15.77
2022-12-09T12:33:17.877Z,17.10
2022-12-09T12:36:16.269Z,16.42
2022-12-09T12:39:27.914Z,17.30
2022-12-09T12:42:37.495Z,16.55
2022-12-09T12:46:00.866Z,16.90
2022-12-09T12:49:19.942Z,16.50
2022-12-09T12:52:54.787Z,17.45
2022-12-09T12:55:59.733Z,18.00
2022-12-09T12:59:07.715Z,16.08
2022-12-09T13:02:19.729Z,17.75
2022-12-09T13:05:26.579Z,17.98
2022-12-09T13:08:33.777Z,16.52
2022-12-09T13:11:43.423Z,16.50
2022-12-09T13:14:53.506Z,17.65
2022-12-09T13:18:02.842Z,17.40
2022-12-09T13:21:08.784Z,17.55
2022-12-09T13:24:23.045Z,17.25
2022-12-09T13:27:32.539Z,16.50
2022-12-09T13:30:39.500Z,16.88
2022-12-09T13:33:52.104Z,18.02
2022-12-09T13:36:57.343Z,16.67
2022-12-09T13:40:02.949Z,17.92
2022-12-09T13:43:13.494Z,16.48
2022-12-09T13:46:24.544Z,17.23
2022-12-09T13:49:32.997Z,16.77
2022-12-09T13:55:51.324Z,14.52
2022-12-09T13:59:11.477Z,14.45
2022-12-09T14:02:19.297Z,15.40
2022-12-09T14:05:28.277Z,14.15
2022-12-09T14:08:36.234Z,13.65
2022-12-09T14:11:50.187Z,14.93
2022-12-09T14:14:56.283Z,13.05
2022-12-09T14:18:05.935Z,14.32
2022-12-09T14:21:31.002Z,14.48
2022-12-09T14:24:37.360Z,14.10
2022-12-09T14:27:42.813Z,14.82
2022-12-09T14:30:52.285Z,14.15
2022-12-09T14:33:57.732Z,13.85
2022-12-09T14:37:23.683Z,14.40
2022-12-09T14:40:43.496Z,14.30
2022-12-09T14:44:03.562Z,14.02
2022-12-09T14:47:24.396Z,14.30
2022-12-09T14:50:30.826Z,13.68
2022-12-09T14:53:37.576Z,14.20
2022-12-09T14:56:48.288Z,14.93
2022-12-09T14:59:54.758Z,16.65
2022-12-09T15:03:31.285Z,15.02
2022-12-09T15:06:30.149Z,15.52
2022-12-09T15:09:35.807Z,15.45
2022-12-09T15:12:42.756Z,15.45
2022-12-09T15:15:48.555Z,14.70
2022-12-09T15:18:57.154Z,14.65
2022-12-09T15:22:02.665Z,14.88
2022-12-09T15:25:08.108Z,14.25
2022-12-09T15:28:22.909Z,14.23
2022-12-09T15:31:32.209Z,14.88
2022-12-09T15:34:40.370Z,13.50
2022-12-09T15:37:45.924Z,15.55
2022-12-09T15:41:03.636Z,15.40
2022-12-09T15:44:10.173Z,10.43
2022-12-09T15:47:18.159Z,14.63
2022-12-09T15:50:26.955Z,15.63
2022-12-09T15:53:35.203Z,14.02
2022-12-09T15:56:42.526Z,14.68
2022-12-09T15:59:55.515Z,15.07
2022-12-09T16:03:01.189Z,15.00
2022-12-09T16:06:10.243Z,14.82
2022-12-09T16:09:16.492Z,15.32
2022-12-09T16:12:32.648Z,15.27
2022-12-09T16:15:46.022Z,15.18
2022-12-09T16:18:52.498Z,14.93
2022-12-09T16:22:02.134Z,14.77
2022-12-09T16:25:18.100Z,14.35
2022-12-09T16:28:24.763Z,14.70
2022-12-09T16:31:30.169Z,14.57
2022-12-09T16:34:35.655Z,14.73
2022-12-09T16:37:45.433Z,14.88
2022-12-09T16:41:01.397Z,14.95
2022-12-09T16:44:20.731Z,14.90
2022-12-09T16:47:27.822Z,14.20
2022-12-09T16:50:34.621Z,14.52
2022-12-09T16:53:52.652Z,14.30
2022-12-09T16:56:58.922Z,14.88
2022-12-09T17:00:04.867Z,14.68
2022-12-09T17:03:12.444Z,14.80
2022-12-09T17:06:18.083Z,15.38
2022-12-09T17:09:26.230Z,14.57
2022-12-09T17:12:31.900Z,14.52
2022-12-09T17:15:37.337Z,16.17
2022-12-09T17:18:42.732Z,13.88
2022-12-09T17:21:48.147Z,15.25
2022-12-09T17:24:56.433Z,15.98
2022-12-09T17:28:01.643Z,16.52
2022-12-09T17:31:10.303Z,15.15
2022-12-09T17:34:15.594Z,14.88
2022-12-09T17:37:20.961Z,15.68
2022-12-09T17:40:29.029Z,14.45
2022-12-09T17:43:34.361Z,15.65
2022-12-09T17:46:39.660Z,15.30
2022-12-09T17:49:45.422Z,16.35
2022-12-09T17:52:50.768Z,15.95
2022-12-09T17:55:58.907Z,14.70
2022-12-09T17:59:07.286Z,16.15
2022-12-09T18:05:17.518Z,14.85
2022-12-09T18:08:22.797Z,15.75
2022-12-09T18:11:30.884Z,16.52
2022-12-09T18:14:36.667Z,16.15
2022-12-09T18:17:41.918Z,14.90
2022-12-09T18:20:47.540Z,15.35
2022-12-09T18:23:52.805Z,15.30
2022-12-09T18:27:01.523Z,15.13
2022-12-09T18:30:07.737Z,15.57
2022-12-09T18:33:13.506Z,15.45
2022-12-09T18:36:19.917Z,14.15
2022-12-09T18:39:25.562Z,14.32
2022-12-09T18:42:33.455Z,15.35
2022-12-09T18:45:39.013Z,15.70
2022-12-09T18:48:44.444Z,14.63
2022-12-09T18:51:50.412Z,14.55
2022-12-09T18:54:56.439Z,14.93
2022-12-09T18:58:04.401Z,15.43
2022-12-09T19:01:16.922Z,15.20
2022-12-09T19:04:23.816Z,15.20
2022-12-09T19:07:32.449Z,15.55
2022-12-09T19:10:38.430Z,14.35
2022-12-09T19:13:46.904Z,15.30
2022-12-09T19:16:52.735Z,17.08
2022-12-09T19:19:58.108Z,15.70
2022-12-09T19:23:05.104Z,16.70
2022-12-09T19:26:14.729Z,16.17
2022-12-09T19:29:24.774Z,15.25
2022-12-09T19:32:52.434Z,15.32
2022-12-09T19:35:55.339Z,15.63
2022-12-09T19:39:01.111Z,15.48
2022-12-09T19:42:06.633Z,17.08
2022-12-09T19:45:14.835Z,16.27
2022-12-09T19:51:26.248Z,17.20
2022-12-09T19:54:32.047Z,16.90
2022-12-09T19:57:37.339Z,17.17
2022-12-09T20:00:45.540Z,17.00
2022-12-09T20:03:51.523Z,16.33
2022-12-09T20:06:57.247Z,16.77
2022-12-09T20:10:02.941Z,15.63
2022-12-09T20:13:09.187Z,15.77
2022-12-09T20:16:18.394Z,16.95
2022-12-09T20:19:24.287Z,17.23
2022-12-09T20:22:29.493Z,17.58
2022-12-09T20:25:36.236Z,15.90
2022-12-09T20:28:42.745Z,16.23
2022-12-09T20:31:50.901Z,16.30
2022-12-09T20:34:56.306Z,16.73
2022-12-09T20:38:02.141Z,17.10
2022-12-09T20:41:07.730Z,15.88
2022-12-09T20:44:13.513Z,16.27
2022-12-09T20:47:21.397Z,17.60
2022-12-09T20:50:26.873Z,15.68
2022-12-09T20:53:32.397Z,16.85
2022-12-09T20:56:38.185Z,17.38
2022-12-09T20:59:43.306Z,19.85
2022-12-09T21:02:51.419Z,17.50
2022-12-09T21:05:59.867Z,19.23
2022-12-09T21:09:06.481Z,19.90
2022-12-09T21:12:12.084Z,19.00
2022-12-09T21:15:19.407Z,19.52
2022-12-09T21:18:27.354Z,19.98
2022-12-09T21:21:33.749Z,20.35
2022-12-09T21:24:39.299Z,21.63
2022-12-09T21:27:44.600Z,23.85
2022-12-09T21:30:49.943Z,23.30
2022-12-09T21:33:59.571Z,22.52
2022-12-09T21:37:05.090Z,20.67
2022-12-09T21:40:10.930Z,20.38
2022-12-09T21:43:16.673Z,20.85
2022-12-09T21:46:22.899Z,19.33
2022-12-09T21:49:33.891Z,20.98
2022-12-09T21:52:39.498Z,20.23
2022-12-09T21:55:45.339Z,20.42
2022-12-09T21:58:51.866Z,20.50
2022-12-09T22:01:57.185Z,20.65
2022-12-09T22:05:06.220Z,18.85
2022-12-09T22:08:11.894Z,18.42
2022-12-09T22:11:18.553Z,17.33
2022-12-09T22:14:24.288Z,20.00
2022-12-09T22:17:29.453Z,20.27
2022-12-09T22:21:15.906Z,17.63
2022-12-09T22:24:04.835Z,18.83
2022-12-09T22:27:10.479Z,18.42
2022-12-09T22:30:16.881Z,19.15
2022-12-09T22:33:22.284Z,20.13
2022-12-09T22:36:30.200Z,19.52
2022-12-09T22:39:35.400Z,18.27
2022-12-09T22:42:41.591Z,20.08
2022-12-09T22:45:46.864Z,18.65
2022-12-09T22:48:52.640Z,19.80
2022-12-09T22:52:01.501Z,18.70
2022-12-09T22:55:10.309Z,17.35
2022-12-09T22:58:15.912Z,16.73
2022-12-09T23:01:22.491Z,16.98
2022-12-09T23:04:27.847Z,16.58
2022-12-09T23:07:36.282Z,15.80
2022-12-09T23:10:42.726Z,14.43
2022-12-09T23:13:48.727Z,14.63
2022-12-09T23:16:53.792Z,14.63
2022-12-09T23:19:59.519Z,13.02
2022-12-09T23:23:07.443Z,13.77
2022-12-09T23:26:13.868Z,13.15
2022-12-09T23:29:19.315Z,12.50
2022-12-09T23:32:24.972Z,15.57
2022-12-09T23:35:30.285Z,14.40
2022-12-09T23:38:38.542Z,15.05
2022-12-09T23:41:44.929Z,15.35
2022-12-09T23:44:50.188Z,14.75
2022-12-09T23:47:55.530Z,15.15
2022-12-09T23:51:01.124Z,14.68
2022-12-09T23:54:10.146Z,16.20
2022-12-09T23:57:15.955Z,14.68
